createdAt,value
2023-06-28T00:00:33.869Z,101217.22
2023-06-28T00:03:02.597Z,101214.59
2023-06-28T00:05:31.524Z,101211.38
2023-06-28T00:07:59.404Z,101214.53
2023-06-28T00:10:28.638Z,101218.66
2023-06-28T00:12:57.590Z,101219.31
2023-06-28T00:15:25.510Z,101222.47
2023-06-28T00:17:53.507Z,101223.72
2023-06-28T00:20:21.612Z,101225.31
2023-06-28T00:22:50.782Z,101220.50
2023-06-28T00:25:19.047Z,101226.81
2023-06-28T00:27:48.493Z,101224.34
2023-06-28T00:30:16.582Z,101232.22
2023-06-28T00:32:44.589Z,101233.34
2023-06-28T00:35:12.434Z,101238.19
2023-06-28T00:37:40.315Z,101236.91
2023-06-28T00:40:09.949Z,101237.44
2023-06-28T00:42:37.946Z,101237.19
2023-06-28T00:45:08.608Z,101230.38
2023-06-28T00:47:36.617Z,101233.97
2023-06-28T00:50:05.555Z,101237.75
2023-06-28T00:52:33.566Z,101228.09
2023-06-28T00:55:01.698Z,101234.66
2023-06-28T00:57:29.914Z,101232.09
2023-06-28T00:59:59.993Z,101251.16
2023-06-28T01:02:30.778Z,101240.38
2023-06-28T01:05:00.937Z,101239.50
2023-06-28T01:07:31.382Z,101244.41
2023-06-28T01:10:02.461Z,101239.97
2023-06-28T01:12:30.836Z,101239.56
2023-06-28T01:14:58.911Z,101238.53
2023-06-28T01:17:26.993Z,101240.09
2023-06-28T01:19:57.542Z,101242.06
2023-06-28T01:22:27.441Z,101247.72
2023-06-28T01:24:57.550Z,101246.03
2023-06-28T01:27:26.240Z,101242.66
2023-06-28T01:29:57.507Z,101242.41
2023-06-28T01:32:26.172Z,101247.78
2023-06-28T01:34:54.171Z,101245.50
2023-06-28T01:37:24.762Z,101247.19
2023-06-28T01:39:53.477Z,101250.69
2023-06-28T01:42:23.358Z,101242.81
2023-06-28T01:44:51.343Z,101245.44
2023-06-28T01:47:19.320Z,101256.63
2023-06-28T01:49:47.785Z,101245.66
2023-06-28T01:52:15.755Z,101241.97
2023-06-28T01:54:43.763Z,101255.06
2023-06-28T01:57:13.414Z,101243.97
2023-06-28T01:59:42.730Z,101241.50
2023-06-28T02:02:10.617Z,101247.13
2023-06-28T02:04:38.540Z,101235.84
2023-06-28T02:07:08.036Z,101234.16
2023-06-28T02:09:36.005Z,101242.31
2023-06-28T02:12:06.021Z,101234.47
2023-06-28T02:14:36.184Z,101232.06
2023-06-28T02:17:06.138Z,101234.19
2023-06-28T02:19:36.908Z,101232.50
2023-06-28T02:22:05.389Z,101233.34
2023-06-28T02:24:34.021Z,101242.97
2023-06-28T02:27:01.983Z,101229.50
2023-06-28T02:29:29.869Z,101233.94
2023-06-28T02:31:57.851Z,101227.38
2023-06-28T02:34:27.116Z,101224.38
2023-06-28T02:36:56.111Z,101210.88
2023-06-28T02:39:24.604Z,101215.13
2023-06-28T02:41:52.547Z,101220.25
2023-06-28T02:44:20.431Z,101216.81
2023-06-28T02:46:49.445Z,101217.94
2023-06-28T02:49:17.705Z,101229.22
2023-06-28T02:51:47.066Z,101220.66
2023-06-28T02:54:16.873Z,101225.03
2023-06-28T02:56:44.922Z,101214.34
2023-06-28T02:59:42.582Z,101214.56
2023-06-28T03:02:11.108Z,101222.28
2023-06-28T03:04:40.946Z,101221.84
2023-06-28T03:07:15.693Z,101225.66
2023-06-28T03:09:43.754Z,101227.41
2023-06-28T03:12:12.600Z,101232.34
2023-06-28T03:14:40.674Z,101240.44
2023-06-28T03:17:08.817Z,101242.00
2023-06-28T03:19:36.895Z,101246.38
2023-06-28T03:22:05.338Z,101247.53
2023-06-28T03:24:34.624Z,101250.34
2023-06-28T03:27:02.520Z,101246.81
2023-06-28T03:29:31.546Z,101245.66
2023-06-28T03:31:59.750Z,101243.00
2023-06-28T03:34:27.758Z,101243.69
2023-06-28T03:37:03.909Z,101249.94
2023-06-28T03:39:34.568Z,101251.63
2023-06-28T03:42:02.485Z,101257.84
2023-06-28T03:44:30.471Z,101254.28
2023-06-28T03:46:58.525Z,101242.31
2023-06-28T03:49:26.508Z,101244.41
2023-06-28T03:51:54.576Z,101238.53
2023-06-28T03:54:22.502Z,101242.41
2023-06-28T03:56:51.910Z,101253.22
2023-06-28T03:59:19.819Z,101244.63
2023-06-28T04:01:48.679Z,101246.97
2023-06-28T04:04:17.068Z,101245.78
2023-06-28T04:06:46.402Z,101242.25
2023-06-28T04:09:16.218Z,101236.91
2023-06-28T04:11:44.398Z,101244.13
2023-06-28T04:14:13.615Z,101241.81
2023-06-28T04:16:41.507Z,101238.69
2023-06-28T04:19:09.538Z,101238.38
2023-06-28T04:21:37.734Z,101245.22
2023-06-28T04:24:06.978Z,101253.47
2023-06-28T04:26:34.895Z,101260.25
2023-06-28T04:29:02.805Z,101265.94
2023-06-28T04:31:32.105Z,101263.22
2023-06-28T04:34:00.852Z,101264.81
2023-06-28T04:36:29.124Z,101283.44
2023-06-28T04:38:57.523Z,101281.88
2023-06-28T04:41:27.064Z,101276.97
2023-06-28T04:43:56.641Z,101286.38
2023-06-28T04:46:27.735Z,101287.38
2023-06-28T04:48:58.565Z,101290.41
2023-06-28T04:51:26.803Z,101283.63
2023-06-28T04:53:54.689Z,101285.84
2023-06-28T04:56:22.663Z,101271.13
2023-06-28T04:58:50.559Z,101273.50
2023-06-28T05:01:18.547Z,101276.91
2023-06-28T05:03:48.694Z,101273.69
2023-06-28T05:06:20.330Z,101277.53
2023-06-28T05:08:48.568Z,101266.97
2023-06-28T05:11:16.455Z,101275.03
2023-06-28T05:13:44.326Z,101276.09
2023-06-28T05:16:12.256Z,101278.34
2023-06-28T05:18:40.125Z,101281.28
2023-06-28T05:21:08.075Z,101283.25
2023-06-28T05:23:37.317Z,101288.03
2023-06-28T05:26:05.353Z,101283.69
2023-06-28T05:28:33.271Z,101285.69
2023-06-28T05:31:02.321Z,101280.69
2023-06-28T05:33:30.327Z,101273.25
2023-06-28T05:35:58.274Z,101280.59
2023-06-28T05:38:26.221Z,101289.31
2023-06-28T05:40:57.273Z,101276.94
2023-06-28T05:43:25.173Z,101275.25
2023-06-28T05:45:53.657Z,101279.78
2023-06-28T05:48:21.750Z,101260.78
2023-06-28T05:50:50.041Z,101252.47
2023-06-28T05:53:18.123Z,101252.47
2023-06-28T05:55:46.101Z,101260.38
2023-06-28T05:58:15.421Z,101256.91
2023-06-28T06:00:44.048Z,101258.97
2023-06-28T06:03:12.740Z,101279.94
2023-06-28T06:05:40.849Z,101281.94
2023-06-28T06:08:08.745Z,101279.88
2023-06-28T06:10:36.676Z,101275.72
2023-06-28T06:13:04.581Z,101279.56
2023-06-28T06:15:34.005Z,101278.16
2023-06-28T06:18:01.988Z,101279.69
2023-06-28T06:20:30.112Z,101285.41
2023-06-28T06:22:58.006Z,101280.34
2023-06-28T06:25:25.919Z,101289.00
2023-06-28T06:27:53.771Z,101279.53
2023-06-28T06:30:21.928Z,101278.84
2023-06-28T06:32:51.279Z,101272.59
2023-06-28T06:35:19.285Z,101284.63
2023-06-28T06:37:47.392Z,101285.09
2023-06-28T06:40:15.440Z,101281.88
2023-06-28T06:42:43.300Z,101281.13
2023-06-28T06:45:18.012Z,101278.53
2023-06-28T06:47:46.993Z,101274.91
2023-06-28T06:50:18.592Z,101275.41
2023-06-28T06:52:46.859Z,101286.94
2023-06-28T06:55:14.879Z,101276.13
2023-06-28T06:57:42.779Z,101278.94
2023-06-28T07:00:11.988Z,101281.38
2023-06-28T07:02:39.895Z,101277.75
2023-06-28T07:05:08.080Z,101293.13
2023-06-28T07:07:37.586Z,101290.63
2023-06-28T07:10:06.573Z,101289.28
2023-06-28T07:12:35.441Z,101279.94
2023-06-28T07:15:03.340Z,101283.28
2023-06-28T07:17:32.262Z,101291.22
2023-06-28T07:20:00.237Z,101290.22
2023-06-28T07:22:28.539Z,101296.56
2023-06-28T07:24:57.837Z,101289.34
2023-06-28T07:27:25.908Z,101296.97
2023-06-28T07:29:53.763Z,101301.47
2023-06-28T07:32:22.262Z,101302.00
2023-06-28T07:34:50.226Z,101297.66
2023-06-28T07:37:18.194Z,101310.94
2023-06-28T07:39:47.051Z,101300.63
2023-06-28T07:42:16.403Z,101294.19
2023-06-28T07:44:45.171Z,101294.00
2023-06-28T07:47:13.081Z,101301.66
2023-06-28T07:49:40.958Z,101297.56
2023-06-28T07:52:10.388Z,101303.22
2023-06-28T07:54:38.276Z,101292.34
2023-06-28T07:57:06.793Z,101297.50
2023-06-28T07:59:36.119Z,101289.56
2023-06-28T08:02:04.230Z,101298.41
2023-06-28T08:04:32.127Z,101292.66
2023-06-28T08:07:00.968Z,101288.19
2023-06-28T08:09:28.886Z,101300.41
2023-06-28T08:11:56.787Z,101298.75
2023-06-28T08:14:24.644Z,101302.84
2023-06-28T08:16:53.967Z,101311.00
2023-06-28T08:19:21.856Z,101306.19
2023-06-28T08:21:50.629Z,101310.97
2023-06-28T08:24:18.541Z,101312.00
2023-06-28T08:26:47.096Z,101298.09
2023-06-28T08:29:17.157Z,101306.69
2023-06-28T08:31:45.168Z,101296.69
2023-06-28T08:34:14.456Z,101303.88
2023-06-28T08:36:42.413Z,101303.69
2023-06-28T08:39:10.556Z,101304.81
2023-06-28T08:41:39.235Z,101295.63
2023-06-28T08:44:08.214Z,101290.53
2023-06-28T08:46:36.446Z,101304.38
2023-06-28T08:49:05.360Z,101308.94
2023-06-28T08:51:34.944Z,101305.56
2023-06-28T08:54:03.453Z,101302.97
2023-06-28T08:56:31.734Z,101309.72
2023-06-28T08:59:00.264Z,101295.94
2023-06-28T09:01:28.614Z,101302.34
2023-06-28T09:03:57.642Z,101300.69
2023-06-28T09:06:25.976Z,101302.88
2023-06-28T09:08:58.433Z,101296.47
2023-06-28T09:11:29.510Z,101297.91
2023-06-28T09:13:57.929Z,101299.16
2023-06-28T09:16:26.338Z,101294.91
2023-06-28T09:18:54.515Z,101293.09
2023-06-28T09:21:26.366Z,101298.38
2023-06-28T09:23:56.114Z,101289.63
2023-06-28T09:26:31.776Z,101286.84
2023-06-28T09:29:01.494Z,101284.75
2023-06-28T09:31:33.071Z,101279.28
2023-06-28T09:34:01.102Z,101280.81
2023-06-28T09:36:31.059Z,101272.44
2023-06-28T09:39:00.565Z,101287.50
2023-06-28T09:41:39.081Z,101289.69
2023-06-28T09:44:07.520Z,101280.53
2023-06-28T09:46:35.879Z,101286.28
2023-06-28T09:49:03.815Z,101301.63
2023-06-28T09:51:31.707Z,101292.28
2023-06-28T09:54:00.981Z,101285.50
2023-06-28T09:56:36.109Z,101279.34
2023-06-28T09:59:08.283Z,101302.66
2023-06-28T10:01:40.056Z,101299.63
2023-06-28T10:04:13.281Z,101290.91
2023-06-28T10:06:43.422Z,101308.09
2023-06-28T10:09:16.410Z,101299.31
2023-06-28T10:11:48.439Z,101305.88
2023-06-28T10:14:17.825Z,101300.09
2023-06-28T10:16:46.499Z,101290.00
2023-06-28T10:19:14.577Z,101289.66
2023-06-28T10:21:43.469Z,101282.69
2023-06-28T10:24:12.799Z,101296.25
2023-06-28T10:26:43.288Z,101305.06
2023-06-28T10:29:11.549Z,101301.78
2023-06-28T10:31:39.691Z,101282.16
2023-06-28T10:34:09.032Z,101286.94
2023-06-28T10:36:36.902Z,101293.78
2023-06-28T10:39:08.898Z,101288.66
2023-06-28T10:41:39.083Z,101289.56
2023-06-28T10:44:07.398Z,101304.53
2023-06-28T10:46:37.341Z,101288.06
2023-06-28T10:49:05.549Z,101290.53
2023-06-28T10:51:35.745Z,101273.72
2023-06-28T10:54:11.246Z,101282.78
2023-06-28T10:56:45.883Z,101278.78
2023-06-28T10:59:13.833Z,101280.50
2023-06-28T11:01:54.799Z,101288.66
2023-06-28T11:04:24.250Z,101295.50
2023-06-28T11:07:12.141Z,101305.00
2023-06-28T11:09:40.144Z,101301.81
2023-06-28T11:12:15.169Z,101297.09
2023-06-28T11:14:43.310Z,101310.84
2023-06-28T11:17:16.373Z,101313.97
2023-06-28T11:19:44.961Z,101310.19
2023-06-28T11:22:13.977Z,101308.56
2023-06-28T11:24:48.630Z,101313.66
2023-06-28T11:27:19.259Z,101308.28
2023-06-28T11:29:55.385Z,101292.06
2023-06-28T11:32:27.948Z,101294.53
2023-06-28T11:34:57.705Z,101293.28
2023-06-28T11:37:25.823Z,101303.63
2023-06-28T11:39:53.901Z,101308.59
2023-06-28T11:42:23.258Z,101313.84
2023-06-28T11:44:52.340Z,101304.38
2023-06-28T11:47:25.925Z,101294.47
2023-06-28T11:49:56.855Z,101286.13
2023-06-28T11:52:26.130Z,101306.22
2023-06-28T11:54:54.519Z,101292.75
2023-06-28T11:57:24.230Z,101289.16
2023-06-28T11:59:52.685Z,101296.84
2023-06-28T12:02:20.692Z,101297.16
2023-06-28T12:04:59.535Z,101297.38
2023-06-28T12:07:28.085Z,101293.81
2023-06-28T12:09:57.951Z,101302.22
2023-06-28T12:12:35.902Z,101292.38
2023-06-28T12:15:04.669Z,101297.25
2023-06-28T12:17:39.390Z,101284.38
2023-06-28T12:20:08.446Z,101297.28
2023-06-28T12:22:40.707Z,101286.16
2023-06-28T12:25:09.440Z,101282.69
2023-06-28T12:27:39.628Z,101291.00
2023-06-28T12:30:11.976Z,101288.38
2023-06-28T12:32:44.662Z,101281.94
2023-06-28T12:35:23.489Z,101288.91
2023-06-28T12:37:55.402Z,101279.28
2023-06-28T12:40:25.448Z,101283.50
2023-06-28T12:43:14.987Z,101292.63
2023-06-28T12:45:52.403Z,101288.03
2023-06-28T12:48:22.538Z,101300.09
2023-06-28T12:50:52.422Z,101284.78
2023-06-28T12:53:21.055Z,101298.06
2023-06-28T12:55:49.077Z,101289.41
2023-06-28T12:58:18.463Z,101289.72
2023-06-28T13:00:47.220Z,101269.94
2023-06-28T13:03:15.808Z,101271.53
2023-06-28T13:05:44.101Z,101281.47
2023-06-28T13:08:13.220Z,101286.50
2023-06-28T13:10:41.372Z,101286.25
2023-06-28T13:13:09.624Z,101285.16
2023-06-28T13:15:39.625Z,101286.41
2023-06-28T13:18:07.701Z,101283.75
2023-06-28T13:20:35.611Z,101290.72
2023-06-28T13:23:03.484Z,101290.44
2023-06-28T13:25:31.386Z,101290.69
2023-06-28T13:27:59.326Z,101293.56
2023-06-28T13:30:27.173Z,101276.72
2023-06-28T13:32:57.929Z,101281.06
2023-06-28T13:35:25.964Z,101286.69
2023-06-28T13:37:53.866Z,101290.00
2023-06-28T13:40:21.980Z,101286.13
2023-06-28T13:42:49.865Z,101297.84
2023-06-28T13:45:17.881Z,101290.56
2023-06-28T13:47:45.878Z,101291.19
2023-06-28T13:50:15.704Z,101276.72
2023-06-28T13:52:43.670Z,101280.88
2023-06-28T13:55:11.606Z,101280.25
2023-06-28T13:57:39.540Z,101271.28
2023-06-28T14:00:08.858Z,101269.72
2023-06-28T14:02:36.839Z,101277.78
2023-06-28T14:05:05.335Z,101273.06
2023-06-28T14:07:34.860Z,101285.63
2023-06-28T14:10:04.205Z,101275.53
2023-06-28T14:12:32.140Z,101270.66
2023-06-28T14:14:59.999Z,101266.69
2023-06-28T14:17:27.974Z,101256.78
2023-06-28T14:19:55.887Z,101270.19
2023-06-28T14:22:24.690Z,101270.53
2023-06-28T14:24:54.001Z,101271.50
2023-06-28T14:27:21.995Z,101273.66
2023-06-28T14:29:49.892Z,101275.59
2023-06-28T14:32:17.755Z,101259.13
2023-06-28T14:34:45.667Z,101268.34
2023-06-28T14:37:13.554Z,101273.66
2023-06-28T14:39:41.410Z,101274.81
2023-06-28T14:42:10.786Z,101267.72
2023-06-28T14:44:38.667Z,101280.78
2023-06-28T14:47:07.076Z,101268.53
2023-06-28T14:49:35.131Z,101272.41
2023-06-28T14:52:03.097Z,101255.06
2023-06-28T14:54:31.029Z,101256.13
2023-06-28T14:57:02.289Z,101261.50
2023-06-28T14:59:31.732Z,101264.16
2023-06-28T15:01:59.926Z,101254.88
2023-06-28T15:04:29.151Z,101253.09
2023-06-28T15:06:57.311Z,101269.47
2023-06-28T15:09:25.390Z,101261.75
2023-06-28T15:11:53.275Z,101274.91
2023-06-28T15:14:21.141Z,101265.78
2023-06-28T15:16:50.951Z,101272.88
2023-06-28T15:19:19.328Z,101275.88
2023-06-28T15:21:47.409Z,101272.47
2023-06-28T15:24:15.306Z,101273.06
2023-06-28T15:26:43.778Z,101272.53
2023-06-28T15:29:12.501Z,101264.34
2023-06-28T15:31:40.521Z,101256.78
2023-06-28T15:34:09.842Z,101273.25
2023-06-28T15:36:37.795Z,101264.59
2023-06-28T15:39:05.662Z,101268.34
2023-06-28T15:41:33.550Z,101264.72
2023-06-28T15:44:01.416Z,101271.28
2023-06-28T15:46:33.172Z,101266.81
2023-06-28T15:49:02.103Z,101256.53
2023-06-28T15:51:31.384Z,101260.25
2023-06-28T15:53:59.303Z,101258.69
2023-06-28T15:56:27.268Z,101255.88
2023-06-28T15:58:55.262Z,101259.47
2023-06-28T16:01:23.437Z,101263.41
2023-06-28T16:03:51.520Z,101262.97
2023-06-28T16:06:19.599Z,101255.59
2023-06-28T16:08:48.881Z,101268.50
2023-06-28T16:11:18.381Z,101264.47
2023-06-28T16:13:46.341Z,101268.50
2023-06-28T16:16:14.222Z,101263.44
2023-06-28T16:18:42.105Z,101257.59
2023-06-28T16:21:09.977Z,101268.28
2023-06-28T16:23:37.908Z,101269.75
2023-06-28T16:26:07.874Z,101264.34
2023-06-28T16:28:35.797Z,101265.56
2023-06-28T16:31:03.830Z,101256.69
2023-06-28T16:33:31.795Z,101265.78
2023-06-28T16:35:59.635Z,101258.81
2023-06-28T16:38:27.579Z,101260.09
2023-06-28T16:40:55.516Z,101268.94
2023-06-28T16:43:24.792Z,101259.91
2023-06-28T16:45:52.766Z,101265.94
2023-06-28T16:48:20.763Z,101275.31
2023-06-28T16:50:48.968Z,101266.78
2023-06-28T16:53:16.930Z,101265.78
2023-06-28T16:55:44.781Z,101257.88
2023-06-28T16:58:13.364Z,101255.25
2023-06-28T17:00:43.192Z,101264.66
2023-06-28T17:03:11.508Z,101268.06
2023-06-28T17:05:47.187Z,101265.78
2023-06-28T17:08:16.060Z,101273.19
2023-06-28T17:10:46.497Z,101274.53
2023-06-28T17:13:14.568Z,101272.41
2023-06-28T17:15:43.867Z,101279.63
2023-06-28T17:18:11.816Z,101281.66
2023-06-28T17:20:39.850Z,101285.06
2023-06-28T17:23:07.848Z,101286.34
2023-06-28T17:25:35.830Z,101276.44
2023-06-28T17:28:03.979Z,101285.66
2023-06-28T17:30:31.916Z,101289.06
2023-06-28T17:33:01.197Z,101295.38
2023-06-28T17:35:29.119Z,101286.59
2023-06-28T17:37:56.976Z,101291.03
2023-06-28T17:40:24.918Z,101282.06
2023-06-28T17:42:52.823Z,101286.16
2023-06-28T17:45:20.779Z,101283.56
2023-06-28T17:47:49.115Z,101282.03
2023-06-28T17:50:18.528Z,101285.66
2023-06-28T17:52:46.529Z,101287.84
2023-06-28T17:55:14.488Z,101297.00
2023-06-28T17:57:42.518Z,101279.50
2023-06-28T18:00:11.578Z,101289.69
2023-06-28T18:02:43.843Z,101288.06
2023-06-28T18:05:12.044Z,101290.00
2023-06-28T18:07:41.382Z,101291.53
2023-06-28T18:10:10.097Z,101292.59
2023-06-28T18:12:38.187Z,101295.00
2023-06-28T18:15:07.389Z,101296.38
2023-06-28T18:17:35.404Z,101294.84
2023-06-28T18:20:04.009Z,101288.22
2023-06-28T18:22:33.942Z,101287.09
2023-06-28T18:25:03.353Z,101293.94
2023-06-28T18:27:31.217Z,101288.13
2023-06-28T18:29:59.183Z,101288.25
2023-06-28T18:32:27.236Z,101292.97
2023-06-28T18:34:55.925Z,101286.34
2023-06-28T18:37:23.833Z,101296.28
2023-06-28T18:39:51.749Z,101291.63
2023-06-28T18:42:21.064Z,101303.31
2023-06-28T18:44:50.002Z,101299.16
2023-06-28T18:47:17.991Z,101301.72
2023-06-28T18:49:45.886Z,101295.00
2023-06-28T18:52:15.631Z,101298.06
2023-06-28T18:54:44.634Z,101300.72
2023-06-28T18:57:14.241Z,101300.47
2023-06-28T18:59:43.853Z,101306.91
2023-06-28T19:02:13.395Z,101305.56
2023-06-28T19:04:42.264Z,101301.38
2023-06-28T19:07:10.250Z,101311.94
2023-06-28T19:09:38.224Z,101315.19
2023-06-28T19:12:07.346Z,101304.16
2023-06-28T19:14:35.254Z,101315.19
2023-06-28T19:17:04.755Z,101321.97
2023-06-28T19:19:32.688Z,101318.28
2023-06-28T19:22:00.604Z,101322.81
2023-06-28T19:24:28.542Z,101318.44
2023-06-28T19:26:56.965Z,101319.34
2023-06-28T19:29:25.178Z,101323.84
2023-06-28T19:31:53.082Z,101331.75
2023-06-28T19:34:22.470Z,101322.72
2023-06-28T19:36:50.399Z,101323.75
2023-06-28T19:39:18.319Z,101332.78
2023-06-28T19:41:46.200Z,101331.38
2023-06-28T19:44:14.177Z,101333.00
2023-06-28T19:46:42.037Z,101339.31
2023-06-28T19:49:09.981Z,101344.59
2023-06-28T19:51:39.226Z,101342.47
2023-06-28T19:54:07.256Z,101346.13
2023-06-28T19:56:35.180Z,101331.28
2023-06-28T19:59:03.084Z,101339.47
2023-06-28T20:01:31.151Z,101343.13
2023-06-28T20:04:07.224Z,101345.19
2023-06-28T20:06:42.106Z,101347.22
2023-06-28T20:09:11.740Z,101346.78
2023-06-28T20:11:40.171Z,101352.38
2023-06-28T20:14:08.262Z,101361.59
2023-06-28T20:16:36.413Z,101367.81
2023-06-28T20:19:04.489Z,101362.22
2023-06-28T20:21:33.760Z,101364.66
2023-06-28T20:24:01.805Z,101363.41
2023-06-28T20:26:29.733Z,101363.03
2023-06-28T20:28:57.660Z,101369.22
2023-06-28T20:31:25.894Z,101363.78
2023-06-28T20:33:53.904Z,101368.91
2023-06-28T20:36:22.784Z,101369.94
2023-06-28T20:38:52.540Z,101365.59
2023-06-28T20:41:26.055Z,101371.31
2023-06-28T20:43:54.964Z,101378.88
2023-06-28T20:46:23.024Z,101378.59
2023-06-28T20:48:51.155Z,101382.88
2023-06-28T20:51:19.092Z,101377.75
2023-06-28T20:53:47.677Z,101381.41
2023-06-28T20:56:17.025Z,101380.03
2023-06-28T20:58:47.327Z,101388.41
2023-06-28T21:01:19.156Z,101383.84
2023-06-28T21:03:47.304Z,101387.25
2023-06-28T21:06:19.217Z,101389.63
2023-06-28T21:08:47.334Z,101378.75
2023-06-28T21:11:17.407Z,101390.84
2023-06-28T21:13:45.303Z,101400.22
2023-06-28T21:16:14.461Z,101397.16
2023-06-28T21:18:43.326Z,101387.47
2023-06-28T21:21:11.429Z,101387.84
2023-06-28T21:23:40.687Z,101387.31
2023-06-28T21:26:08.773Z,101388.03
2023-06-28T21:28:38.036Z,101384.13
2023-06-28T21:31:05.993Z,101395.00
2023-06-28T21:33:34.069Z,101393.47
2023-06-28T21:36:02.054Z,101396.91
2023-06-28T21:38:29.930Z,101393.50
2023-06-28T21:40:58.540Z,101394.56
2023-06-28T21:43:26.534Z,101396.25
2023-06-28T21:45:55.991Z,101391.84
2023-06-28T21:48:23.948Z,101400.34
2023-06-28T21:50:52.005Z,101402.22
2023-06-28T21:53:19.956Z,101388.09
2023-06-28T21:55:47.957Z,101392.69
2023-06-28T21:58:15.846Z,101395.25
2023-06-28T22:00:44.073Z,101405.59
2023-06-28T22:03:14.023Z,101402.91
2023-06-28T22:05:42.248Z,101402.03
2023-06-28T22:08:10.404Z,101403.91
2023-06-28T22:10:38.296Z,101404.06
2023-06-28T22:13:08.219Z,101416.66
2023-06-28T22:15:36.957Z,101404.94
2023-06-28T22:18:10.927Z,101407.47
2023-06-28T22:20:40.934Z,101405.59
2023-06-28T22:23:09.058Z,101407.63
2023-06-28T22:25:37.230Z,101408.63
2023-06-28T22:28:05.438Z,101409.00
2023-06-28T22:30:33.765Z,101420.34
2023-06-28T22:33:01.889Z,101417.63
2023-06-28T22:35:29.933Z,101416.94
2023-06-28T22:37:59.211Z,101411.13
2023-06-28T22:40:27.125Z,101406.53
2023-06-28T22:42:54.996Z,101410.25
2023-06-28T22:45:23.806Z,101405.34
2023-06-28T22:47:51.994Z,101409.06
2023-06-28T22:50:19.982Z,101412.97
2023-06-28T22:52:47.823Z,101408.38
2023-06-28T22:55:17.292Z,101405.50
2023-06-28T22:57:45.218Z,101409.56
2023-06-28T23:00:13.685Z,101403.97
2023-06-28T23:02:41.673Z,101409.41
2023-06-28T23:05:10.263Z,101411.97
2023-06-28T23:07:39.280Z,101414.81
2023-06-28T23:10:08.415Z,101414.50
2023-06-28T23:12:37.939Z,101414.81
2023-06-28T23:15:07.251Z,101421.53
2023-06-28T23:17:35.179Z,101418.78
2023-06-28T23:20:08.711Z,101418.13
2023-06-28T23:22:36.924Z,101412.19
2023-06-28T23:25:06.015Z,101413.00
2023-06-28T23:27:34.357Z,101420.13
2023-06-28T23:30:03.676Z,101423.31
2023-06-28T23:32:31.620Z,101417.41
2023-06-28T23:34:59.585Z,101416.72
2023-06-28T23:37:27.485Z,101413.94
2023-06-28T23:39:55.372Z,101418.38
2023-06-28T23:42:23.245Z,101422.28
2023-06-28T23:44:51.466Z,101413.28
2023-06-28T23:47:21.196Z,101410.88
2023-06-28T23:49:51.612Z,101417.50
2023-06-28T23:52:19.727Z,101422.19
2023-06-28T23:54:47.591Z,101409.06
2023-06-28T23:57:15.953Z,101419.13
2023-06-28T23:59:43.926Z,101416.50
